PWSweather.com
Personal Weather Stations
Station Observations
ZL1DX1M
Mt. Roskill, Auckland, AK 1041

Mt. RoskillAuckland, AK 1041

Lat: -36.9, Lon: 174.74

Elevation: 54

Station Type:

http://www.sanctuaryweather.co.nz

Latest ConditionsUpdated 11:40:17 AM GMT+12 Thursday, May 28, 2015
Currently Today's Max Today's Min Today's Average
Temperature 54.3°F12.4°C 54.3°F12.4°C 44.4°F6.9°C 46.6°F8.1°C
Dew Point 45.5°F7.5°C 45.5°F7.5°C 40.8°F4.9°C 42.3°F5.7°C
Winds Calm Calm 3.0 mph ENE4.8 kmh ENE - 0.8 mph 1.3 kmh
Wind Gusts -- 6.0 mph9.7 kmh - -
Humidity 72% 89% 72% 85%
Pressure 30.32 in1026.8 mb 30.32 in1026.8 mb 30.15 in1021.0 mb -
Hour Temp Dew Point Humidity Winds Wind Gusts Pressure Precip Precip Rate Daily Precip Total
11:40 AM 54.3°F12.4°C 45.5°F7.5°C 72% Calm Calm -- 30.32 in1026.8 mb - 0.00 in0.0 mm 0.00 in0.0 mm
11:35 AM 54.3°F12.4°C 45.4°F7.4°C 72% 1.3 mph SE2.1 kmh SE 2.0 mph3.2 kmh 30.32 in1026.8 mb - 0.00 in0.0 mm 0.00 in0.0 mm
11:30 AM 53.9°F12.2°C 45.4°F7.4°C 73% 0.1 mph S0.2 kmh S 1.0 mph1.6 kmh 30.32 in1026.8 mb - 0.00 in0.0 mm 0.00 in0.0 mm
11:25 AM 53.8°F12.1°C 45.0°F7.2°C 72% 0.6 mph SE1.0 kmh SE 2.0 mph3.2 kmh 30.32 in1026.8 mb - 0.00 in0.0 mm 0.00 in0.0 mm
11:20 AM 54.0°F12.2°C 45.5°F7.5°C 73% 0.6 mph SW1.0 kmh SW 3.0 mph4.8 kmh 30.32 in1026.8 mb - 0.00 in0.0 mm 0.00 in0.0 mm
11:15 AM 53.7°F12.1°C 45.3°F7.4°C 73% Calm Calm -- 30.32 in1026.8 mb - 0.00 in0.0 mm 0.00 in0.0 mm
11:00 AM 53.2°F11.8°C 45.1°F7.3°C 74% 0.5 mph SE0.8 kmh SE 1.0 mph1.6 kmh 30.32 in1026.8 mb - 0.00 in0.0 mm 0.00 in0.0 mm
10:55 AM 52.8°F11.6°C 45.1°F7.3°C 75% 0.7 mph E1.1 kmh E 2.0 mph3.2 kmh 30.32 in1026.8 mb - 0.00 in0.0 mm 0.00 in0.0 mm
10:50 AM 52.4°F11.3°C 44.7°F7.1°C 75% 0.6 mph SE1.0 kmh SE 3.0 mph4.8 kmh 30.32 in1026.8 mb - 0.00 in0.0 mm 0.00 in0.0 mm
10:45 AM 52.4°F11.3°C 44.7°F7.1°C 75% 1.7 mph ESE2.7 kmh ESE 6.0 mph9.7 kmh 30.32 in1026.8 mb - 0.00 in0.0 mm 0.00 in0.0 mm
10:40 AM 52.2°F11.2°C 45.2°F7.3°C 77% 0.9 mph SW1.4 kmh SW 2.0 mph3.2 kmh 30.32 in1026.8 mb - 0.00 in0.0 mm 0.00 in0.0 mm
10:35 AM 52.0°F11.1°C 45.3°F7.4°C 78% 0.5 mph SE0.8 kmh SE 2.0 mph3.2 kmh 30.32 in1026.8 mb - 0.00 in0.0 mm 0.00 in0.0 mm
10:30 AM 51.8°F11.0°C 44.8°F7.1°C 77% 0.7 mph SSE1.1 kmh SSE 1.0 mph1.6 kmh 30.32 in1026.8 mb - 0.00 in0.0 mm 0.00 in0.0 mm
10:25 AM 51.7°F10.9°C 45.1°F7.3°C 78% 0.9 mph SE1.4 kmh SE -- 30.32 in1026.8 mb - 0.00 in0.0 mm 0.00 in0.0 mm
10:20 AM 51.6°F10.9°C 45.3°F7.4°C 79% 0.7 mph S1.1 kmh S 4.0 mph6.4 kmh 30.32 in1026.8 mb - 0.00 in0.0 mm 0.00 in0.0 mm
10:15 AM 51.3°F10.7°C 45.0°F7.2°C 79% 0.8 mph ESE1.3 kmh ESE 3.0 mph4.8 kmh 30.32 in1026.8 mb - 0.00 in0.0 mm 0.00 in0.0 mm
10:11 AM 51.3°F10.7°C 45.0°F7.2°C 79% 0.9 mph ESE1.4 kmh ESE 4.0 mph6.4 kmh 30.32 in1026.8 mb - 0.00 in0.0 mm 0.00 in0.0 mm
10:05 AM 50.9°F10.5°C 44.6°F7.0°C 79% 0.3 mph SE0.5 kmh SE -- 30.31 in1026.4 mb - 0.00 in0.0 mm 0.00 in0.0 mm
10:00 AM 50.5°F10.3°C 43.9°F6.6°C 78% 3.0 mph ENE4.8 kmh ENE 4.0 mph6.4 kmh 30.31 in1026.4 mb - 0.00 in0.0 mm 0.00 in0.0 mm
09:55 AM 50.5°F10.3°C 44.9°F7.2°C 81% 0.5 mph ESE0.8 kmh ESE 3.0 mph4.8 kmh 30.31 in1026.4 mb - 0.00 in0.0 mm 0.00 in0.0 mm
09:50 AM 50.2°F10.1°C 44.3°F6.8°C 80% 1.0 mph SE1.6 kmh SE 2.0 mph3.2 kmh 30.31 in1026.4 mb - 0.00 in0.0 mm 0.00 in0.0 mm
09:45 AM 50.2°F10.1°C 44.6°F7.0°C 81% 0.4 mph ESE0.6 kmh ESE 1.0 mph1.6 kmh 30.31 in1026.4 mb - 0.00 in0.0 mm 0.00 in0.0 mm
09:40 AM 49.9°F9.9°C 44.6°F7.0°C 82% 0.8 mph E1.3 kmh E 2.0 mph3.2 kmh 30.31 in1026.4 mb - 0.00 in0.0 mm 0.00 in0.0 mm
09:35 AM 49.8°F9.9°C 44.5°F6.9°C 82% 0.7 mph SE1.1 kmh SE 3.0 mph4.8 kmh 30.31 in1026.4 mb - 0.00 in0.0 mm 0.00 in0.0 mm
09:30 AM 49.7°F9.8°C 44.4°F6.9°C 82% 1.6 mph SSE2.6 kmh SSE 3.0 mph4.8 kmh 30.31 in1026.4 mb - 0.00 in0.0 mm 0.00 in0.0 mm
09:25 AM 49.7°F9.8°C 44.4°F6.9°C 82% 1.3 mph SSE2.1 kmh SSE 4.0 mph6.4 kmh 30.31 in1026.4 mb - 0.00 in0.0 mm 0.00 in0.0 mm
09:20 AM 49.6°F9.8°C 44.3°F6.8°C 82% 1.0 mph SE1.6 kmh SE 3.0 mph4.8 kmh 30.30 in1026.1 mb - 0.00 in0.0 mm 0.00 in0.0 mm
09:15 AM 49.3°F9.6°C 43.7°F6.5°C 81% 0.2 mph SSE0.3 kmh SSE 3.0 mph4.8 kmh 30.30 in1026.1 mb - 0.00 in0.0 mm 0.00 in0.0 mm
09:10 AM 49.1°F9.5°C 43.8°F6.6°C 82% Calm Calm -- 30.30 in1026.1 mb - 0.00 in0.0 mm 0.00 in0.0 mm
09:05 AM 48.8°F9.3°C 43.5°F6.4°C 82% 0.2 mph E0.3 kmh E -- 30.30 in1026.1 mb - 0.00 in0.0 mm 0.00 in0.0 mm
09:00 AM 48.6°F9.2°C 43.7°F6.5°C 83% 0.5 mph SSE0.8 kmh SSE 1.0 mph1.6 kmh 30.30 in1026.1 mb - 0.00 in0.0 mm 0.00 in0.0 mm
08:55 AM 48.5°F9.2°C 43.6°F6.4°C 83% 0.4 mph ESE0.6 kmh ESE 2.0 mph3.2 kmh 30.30 in1026.1 mb - 0.00 in0.0 mm 0.00 in0.0 mm
08:50 AM 48.4°F9.1°C 43.4°F6.3°C 83% 0.1 mph SE0.2 kmh SE 1.0 mph1.6 kmh 30.30 in1026.1 mb - 0.00 in0.0 mm 0.00 in0.0 mm
08:45 AM 48.1°F8.9°C 43.2°F6.2°C 83% 0.1 mph ESE0.2 kmh ESE -- 30.30 in1026.1 mb - 0.00 in0.0 mm 0.00 in0.0 mm
08:40 AM 46.5°F8.1°C 42.2°F5.7°C 85% Calm Calm -- 30.29 in1025.7 mb - 0.00 in0.0 mm 0.00 in0.0 mm
08:10 AM 46.4°F8.0°C 42.1°F5.6°C 85% 0.4 mph SE0.6 kmh SE 2.0 mph3.2 kmh 30.29 in1025.7 mb - 0.00 in0.0 mm 0.00 in0.0 mm
08:05 AM 46.2°F7.9°C 41.9°F5.5°C 85% 0.9 mph SE1.4 kmh SE 2.0 mph3.2 kmh 30.29 in1025.7 mb - 0.00 in0.0 mm 0.00 in0.0 mm
08:00 AM 46.0°F7.8°C 42.0°F5.6°C 86% 1.5 mph SE2.4 kmh SE 3.0 mph4.8 kmh 30.29 in1025.7 mb - 0.00 in0.0 mm 0.00 in0.0 mm
07:55 AM 45.7°F7.6°C 41.8°F5.4°C 86% 2.2 mph SE3.5 kmh SE 4.0 mph6.4 kmh 30.29 in1025.7 mb - 0.00 in0.0 mm 0.00 in0.0 mm
07:50 AM 45.5°F7.5°C 41.6°F5.3°C 86% 0.3 mph SE0.5 kmh SE 1.0 mph1.6 kmh 30.29 in1025.7 mb - 0.00 in0.0 mm 0.00 in0.0 mm
07:45 AM 45.3°F7.4°C 41.7°F5.4°C 87% 0.7 mph SE1.1 kmh SE 1.0 mph1.6 kmh 30.28 in1025.4 mb - 0.00 in0.0 mm 0.00 in0.0 mm
07:40 AM 45.1°F7.3°C 41.2°F5.1°C 86% 0.5 mph SE0.8 kmh SE 2.0 mph3.2 kmh 30.28 in1025.4 mb - 0.00 in0.0 mm 0.00 in0.0 mm
07:35 AM 45.0°F7.2°C 41.3°F5.2°C 87% 1.7 mph SE2.7 kmh SE 4.0 mph6.4 kmh 30.28 in1025.4 mb - 0.00 in0.0 mm 0.00 in0.0 mm
07:30 AM 44.9°F7.2°C 41.2°F5.1°C 87% 0.8 mph SE1.3 kmh SE 2.0 mph3.2 kmh 30.28 in1025.4 mb - 0.00 in0.0 mm 0.00 in0.0 mm
07:25 AM 44.8°F7.1°C 41.2°F5.1°C 87% 1.6 mph SE2.6 kmh SE 4.0 mph6.4 kmh 30.27 in1025.1 mb - 0.00 in0.0 mm 0.00 in0.0 mm
07:20 AM 44.7°F7.1°C 41.1°F5.1°C 87% 1.9 mph SE3.1 kmh SE 3.0 mph4.8 kmh 30.27 in1025.1 mb - 0.00 in0.0 mm 0.00 in0.0 mm
07:15 AM 44.8°F7.1°C 41.2°F5.1°C 87% 2.4 mph SE3.9 kmh SE 4.0 mph6.4 kmh 30.27 in1025.1 mb - 0.00 in0.0 mm 0.00 in0.0 mm
07:10 AM 44.8°F7.1°C 41.2°F5.1°C 87% 1.8 mph SE2.9 kmh SE 5.0 mph8.0 kmh 30.27 in1025.1 mb - 0.00 in0.0 mm 0.00 in0.0 mm
07:05 AM 44.8°F7.1°C 41.2°F5.1°C 87% 1.4 mph SE2.3 kmh SE 2.0 mph3.2 kmh 30.27 in1025.1 mb - 0.00 in0.0 mm 0.00 in0.0 mm
07:00 AM 44.8°F7.1°C 41.2°F5.1°C 87% 1.9 mph SE3.1 kmh SE 3.0 mph4.8 kmh 30.27 in1025.1 mb - 0.00 in0.0 mm 0.00 in0.0 mm
06:55 AM 44.7°F7.1°C 41.1°F5.1°C 87% 1.3 mph SE2.1 kmh SE 3.0 mph4.8 kmh 30.27 in1025.1 mb - 0.00 in0.0 mm 0.00 in0.0 mm
06:50 AM 44.7°F7.1°C 41.1°F5.1°C 87% 1.5 mph SE2.4 kmh SE 3.0 mph4.8 kmh 30.26 in1024.7 mb - 0.00 in0.0 mm 0.00 in0.0 mm
06:45 AM 44.9°F7.2°C 41.2°F5.1°C 87% 2.3 mph SE3.7 kmh SE 4.0 mph6.4 kmh 30.26 in1024.7 mb - 0.00 in0.0 mm 0.00 in0.0 mm
06:40 AM 44.9°F7.2°C 41.3°F5.2°C 87% 1.4 mph SE2.3 kmh SE 3.0 mph4.8 kmh 30.26 in1024.7 mb - 0.00 in0.0 mm 0.00 in0.0 mm
06:35 AM 44.9°F7.2°C 41.3°F5.2°C 87% 2.5 mph SE4.0 kmh SE 3.0 mph4.8 kmh 30.26 in1024.7 mb - 0.00 in0.0 mm 0.00 in0.0 mm
06:30 AM 44.9°F7.2°C 41.0°F5.0°C 86% 1.0 mph ESE1.6 kmh ESE 2.0 mph3.2 kmh 30.26 in1024.7 mb - 0.00 in0.0 mm 0.00 in0.0 mm
06:25 AM 45.0°F7.2°C 41.4°F5.2°C 87% 2.2 mph SE3.5 kmh SE 3.0 mph4.8 kmh 30.26 in1024.7 mb - 0.00 in0.0 mm 0.00 in0.0 mm
06:20 AM 44.9°F7.2°C 41.3°F5.2°C 87% 1.9 mph SE3.1 kmh SE 4.0 mph6.4 kmh 30.25 in1024.4 mb - 0.00 in0.0 mm 0.00 in0.0 mm
06:15 AM 45.0°F7.2°C 41.1°F5.1°C 86% 1.6 mph SE2.6 kmh SE 4.0 mph6.4 kmh 30.25 in1024.4 mb - 0.00 in0.0 mm 0.00 in0.0 mm
06:10 AM 45.1°F7.3°C 41.5°F5.3°C 87% 1.6 mph SE2.6 kmh SE 3.0 mph4.8 kmh 30.25 in1024.4 mb - 0.00 in0.0 mm 0.00 in0.0 mm
06:05 AM 45.0°F7.2°C 41.4°F5.2°C 87% 1.8 mph SE2.9 kmh SE 2.0 mph3.2 kmh 30.25 in1024.4 mb - 0.00 in0.0 mm 0.00 in0.0 mm
06:00 AM 44.9°F7.2°C 41.3°F5.2°C 87% 1.9 mph E3.1 kmh E 4.0 mph6.4 kmh 30.25 in1024.4 mb - 0.00 in0.0 mm 0.00 in0.0 mm
05:55 AM 44.7°F7.1°C 41.1°F5.1°C 87% 2.1 mph SE3.4 kmh SE 4.0 mph6.4 kmh 30.25 in1024.4 mb - 0.00 in0.0 mm 0.00 in0.0 mm
05:50 AM 44.6°F7.0°C 41.0°F5.0°C 87% 2.0 mph SE3.2 kmh SE 4.0 mph6.4 kmh 30.25 in1024.4 mb - 0.00 in0.0 mm 0.00 in0.0 mm
05:45 AM 44.6°F7.0°C 41.0°F5.0°C 87% 0.6 mph SE1.0 kmh SE 1.0 mph1.6 kmh 30.24 in1024.0 mb - 0.00 in0.0 mm 0.00 in0.0 mm
05:40 AM 44.6°F7.0°C 41.0°F5.0°C 87% 1.3 mph SE2.1 kmh SE 3.0 mph4.8 kmh 30.24 in1024.0 mb - 0.00 in0.0 mm 0.00 in0.0 mm
05:35 AM 44.6°F7.0°C 41.0°F5.0°C 87% 0.5 mph SE0.8 kmh SE 1.0 mph1.6 kmh 30.24 in1024.0 mb - 0.00 in0.0 mm 0.00 in0.0 mm
05:30 AM 44.5°F6.9°C 40.9°F4.9°C 87% 0.2 mph SE0.3 kmh SE 2.0 mph3.2 kmh 30.24 in1024.0 mb - 0.00 in0.0 mm 0.00 in0.0 mm
05:25 AM 44.4°F6.9°C 40.8°F4.9°C 87% 0.1 mph SE0.2 kmh SE -- 30.24 in1024.0 mb - 0.00 in0.0 mm 0.00 in0.0 mm
05:20 AM 44.4°F6.9°C 40.8°F4.9°C 87% 0.7 mph SE1.1 kmh SE 2.0 mph3.2 kmh 30.24 in1024.0 mb - 0.00 in0.0 mm 0.00 in0.0 mm
05:15 AM 44.5°F6.9°C 40.9°F4.9°C 87% 0.6 mph SE1.0 kmh SE 2.0 mph3.2 kmh 30.23 in1023.7 mb - 0.00 in0.0 mm 0.00 in0.0 mm
05:10 AM 44.6°F7.0°C 40.9°F4.9°C 87% 0.3 mph SSE0.5 kmh SSE 2.0 mph3.2 kmh 30.23 in1023.7 mb - 0.00 in0.0 mm 0.00 in0.0 mm
05:05 AM 44.7°F7.1°C 41.1°F5.1°C 87% 0.7 mph SE1.1 kmh SE 2.0 mph3.2 kmh 30.23 in1023.7 mb - 0.00 in0.0 mm 0.00 in0.0 mm
05:00 AM 44.7°F7.1°C 41.1°F5.1°C 87% 1.7 mph SE2.7 kmh SE 3.0 mph4.8 kmh 30.23 in1023.7 mb - 0.00 in0.0 mm 0.00 in0.0 mm
04:55 AM 44.8°F7.1°C 41.2°F5.1°C 87% 0.8 mph SE1.3 kmh SE 2.0 mph3.2 kmh 30.23 in1023.7 mb - 0.00 in0.0 mm 0.00 in0.0 mm
04:50 AM 44.9°F7.2°C 41.3°F5.2°C 87% 0.7 mph SE1.1 kmh SE 2.0 mph3.2 kmh 30.23 in1023.7 mb - 0.00 in0.0 mm 0.00 in0.0 mm
04:45 AM 45.0°F7.2°C 41.4°F5.2°C 87% 1.6 mph SSE2.6 kmh SSE 2.0 mph3.2 kmh 30.23 in1023.7 mb - 0.00 in0.0 mm 0.00 in0.0 mm
04:40 AM 44.9°F7.2°C 41.3°F5.2°C 87% 2.0 mph ESE3.2 kmh ESE 3.0 mph4.8 kmh 30.22 in1023.4 mb - 0.00 in0.0 mm 0.00 in0.0 mm
04:35 AM 44.9°F7.2°C 41.3°F5.2°C 87% 1.1 mph SE1.8 kmh SE 2.0 mph3.2 kmh 30.22 in1023.4 mb - 0.00 in0.0 mm 0.00 in0.0 mm
04:30 AM 44.9°F7.2°C 41.6°F5.3°C 88% 1.9 mph ESE3.1 kmh ESE 4.0 mph6.4 kmh 30.22 in1023.4 mb - 0.00 in0.0 mm 0.00 in0.0 mm
04:25 AM 44.9°F7.2°C 41.6°F5.3°C 88% 0.9 mph SE1.4 kmh SE 2.0 mph3.2 kmh 30.22 in1023.4 mb - 0.00 in0.0 mm 0.00 in0.0 mm
04:20 AM 44.9°F7.2°C 41.6°F5.3°C 88% 0.6 mph SE1.0 kmh SE 2.0 mph3.2 kmh 30.22 in1023.4 mb - 0.00 in0.0 mm 0.00 in0.0 mm
04:15 AM 45.0°F7.2°C 41.7°F5.4°C 88% 0.5 mph SE0.8 kmh SE 2.0 mph3.2 kmh 30.22 in1023.4 mb - 0.00 in0.0 mm 0.00 in0.0 mm
04:10 AM 45.1°F7.3°C 41.8°F5.4°C 88% 0.7 mph SE1.1 kmh SE 2.0 mph3.2 kmh 30.21 in1023.0 mb - 0.00 in0.0 mm 0.00 in0.0 mm
04:05 AM 45.1°F7.3°C 41.7°F5.4°C 88% 2.9 mph SE4.7 kmh SE 4.0 mph6.4 kmh 30.21 in1023.0 mb - 0.00 in0.0 mm 0.00 in0.0 mm
04:00 AM 44.9°F7.2°C 41.6°F5.3°C 88% 2.5 mph ESE4.0 kmh ESE 4.0 mph6.4 kmh 30.21 in1023.0 mb - 0.00 in0.0 mm 0.00 in0.0 mm
03:55 AM 44.8°F7.1°C 41.5°F5.3°C 88% 1.2 mph SE1.9 kmh SE 3.0 mph4.8 kmh 30.21 in1023.0 mb - 0.00 in0.0 mm 0.00 in0.0 mm
03:50 AM 44.8°F7.1°C 41.4°F5.2°C 88% 0.3 mph SE0.5 kmh SE 1.0 mph1.6 kmh 30.21 in1023.0 mb - 0.00 in0.0 mm 0.00 in0.0 mm
03:45 AM 44.7°F7.1°C 41.4°F5.2°C 88% 0.9 mph SE1.4 kmh SE 2.0 mph3.2 kmh 30.21 in1023.0 mb - 0.00 in0.0 mm 0.00 in0.0 mm
03:40 AM 44.7°F7.1°C 41.4°F5.2°C 88% 0.6 mph SE1.0 kmh SE 1.0 mph1.6 kmh 30.21 in1023.0 mb - 0.00 in0.0 mm 0.00 in0.0 mm
03:35 AM 44.7°F7.1°C 41.4°F5.2°C 88% 0.1 mph SE0.2 kmh SE 1.0 mph1.6 kmh 30.21 in1023.0 mb - 0.00 in0.0 mm 0.00 in0.0 mm
03:30 AM 44.8°F7.1°C 41.5°F5.3°C 88% 0.5 mph SE0.8 kmh SE 2.0 mph3.2 kmh 30.21 in1023.0 mb - 0.00 in0.0 mm 0.00 in0.0 mm
03:25 AM 44.8°F7.1°C 41.4°F5.2°C 88% 0.4 mph SE0.6 kmh SE 1.0 mph1.6 kmh 30.20 in1022.7 mb - 0.00 in0.0 mm 0.00 in0.0 mm
03:20 AM 44.6°F7.0°C 41.3°F5.2°C 88% 0.6 mph SE1.0 kmh SE 1.0 mph1.6 kmh 30.20 in1022.7 mb - 0.00 in0.0 mm 0.00 in0.0 mm
03:15 AM 44.4°F6.9°C 41.1°F5.1°C 88% 1.0 mph SE1.6 kmh SE 3.0 mph4.8 kmh 30.20 in1022.7 mb - 0.00 in0.0 mm 0.00 in0.0 mm
03:10 AM 44.4°F6.9°C 41.1°F5.1°C 88% 0.2 mph ESE0.3 kmh ESE 2.0 mph3.2 kmh 30.20 in1022.7 mb - 0.00 in0.0 mm 0.00 in0.0 mm
03:05 AM 44.4°F6.9°C 41.1°F5.1°C 88% Calm Calm 1.0 mph1.6 kmh 30.20 in1022.7 mb - 0.00 in0.0 mm 0.00 in0.0 mm
03:00 AM 44.4°F6.9°C 41.1°F5.1°C 88% Calm Calm -- 30.20 in1022.7 mb - 0.00 in0.0 mm 0.00 in0.0 mm
02:55 AM 44.5°F6.9°C 41.1°F5.1°C 88% Calm Calm -- 30.20 in1022.7 mb - 0.00 in0.0 mm 0.00 in0.0 mm
02:50 AM 44.6°F7.0°C 41.0°F5.0°C 87% Calm Calm -- 30.20 in1022.7 mb - 0.00 in0.0 mm 0.00 in0.0 mm
02:45 AM 44.7°F7.1°C 41.1°F5.1°C 87% Calm Calm -- 30.20 in1022.7 mb - 0.00 in0.0 mm 0.00 in0.0 mm
02:40 AM 44.9°F7.2°C 41.3°F5.2°C 87% Calm Calm -- 30.20 in1022.7 mb - 0.00 in0.0 mm 0.00 in0.0 mm
02:35 AM 44.9°F7.2°C 41.3°F5.2°C 87% 0.1 mph SE0.2 kmh SE 1.0 mph1.6 kmh 30.20 in1022.7 mb - 0.00 in0.0 mm 0.00 in0.0 mm
02:30 AM 45.0°F7.2°C 41.3°F5.2°C 87% 0.4 mph SE0.6 kmh SE 1.0 mph1.6 kmh 30.20 in1022.7 mb - 0.00 in0.0 mm 0.00 in0.0 mm
02:25 AM 44.9°F7.2°C 41.3°F5.2°C 87% 0.1 mph SE0.2 kmh SE 1.0 mph1.6 kmh 30.19 in1022.4 mb - 0.00 in0.0 mm 0.00 in0.0 mm
02:20 AM 44.9°F7.2°C 41.3°F5.2°C 87% 0.1 mph SE0.2 kmh SE 2.0 mph3.2 kmh 30.19 in1022.4 mb - 0.00 in0.0 mm 0.00 in0.0 mm
02:15 AM 44.9°F7.2°C 41.3°F5.2°C 87% Calm Calm -- 30.19 in1022.4 mb - 0.00 in0.0 mm 0.00 in0.0 mm
02:10 AM 44.9°F7.2°C 41.6°F5.3°C 88% Calm Calm -- 30.18 in1022.0 mb - 0.00 in0.0 mm 0.00 in0.0 mm
02:05 AM 44.8°F7.1°C 41.5°F5.3°C 88% 0.1 mph SE0.2 kmh SE 1.0 mph1.6 kmh 30.18 in1022.0 mb - 0.00 in0.0 mm 0.00 in0.0 mm
02:00 AM 44.7°F7.1°C 41.4°F5.2°C 88% 0.2 mph SE0.3 kmh SE 2.0 mph3.2 kmh 30.18 in1022.0 mb - 0.00 in0.0 mm 0.00 in0.0 mm
01:55 AM 44.7°F7.1°C 41.4°F5.2°C 88% 0.1 mph SE0.2 kmh SE 1.0 mph1.6 kmh 30.18 in1022.0 mb - 0.00 in0.0 mm 0.00 in0.0 mm
01:50 AM 44.7°F7.1°C 41.4°F5.2°C 88% Calm Calm 1.0 mph1.6 kmh 30.18 in1022.0 mb - 0.00 in0.0 mm 0.00 in0.0 mm
01:45 AM 44.8°F7.1°C 41.5°F5.3°C 88% Calm Calm -- 30.18 in1022.0 mb - 0.00 in0.0 mm 0.00 in0.0 mm
01:40 AM 44.9°F7.2°C 41.6°F5.3°C 88% Calm Calm -- 30.18 in1022.0 mb - 0.00 in0.0 mm 0.00 in0.0 mm
01:35 AM 45.0°F7.2°C 41.7°F5.4°C 88% Calm Calm -- 30.18 in1022.0 mb - 0.00 in0.0 mm 0.00 in0.0 mm
01:30 AM 45.0°F7.2°C 41.7°F5.4°C 88% 0.4 mph SE0.6 kmh SE 1.0 mph1.6 kmh 30.18 in1022.0 mb - 0.00 in0.0 mm 0.00 in0.0 mm
01:25 AM 45.1°F7.3°C 41.7°F5.4°C 88% 0.3 mph SE0.5 kmh SE 1.0 mph1.6 kmh 30.17 in1021.7 mb - 0.00 in0.0 mm 0.00 in0.0 mm
01:20 AM 45.2°F7.3°C 41.9°F5.5°C 88% Calm Calm 1.0 mph1.6 kmh 30.17 in1021.7 mb - 0.00 in0.0 mm 0.00 in0.0 mm
01:15 AM 45.4°F7.4°C 42.0°F5.6°C 88% Calm Calm -- 30.17 in1021.7 mb - 0.00 in0.0 mm 0.00 in0.0 mm
01:10 AM 45.5°F7.5°C 41.9°F5.5°C 87% 0.5 mph SE0.8 kmh SE 1.0 mph1.6 kmh 30.17 in1021.7 mb - 0.00 in0.0 mm 0.00 in0.0 mm
01:05 AM 45.7°F7.6°C 42.3°F5.7°C 88% 0.1 mph SE0.2 kmh SE 1.0 mph1.6 kmh 30.17 in1021.7 mb - 0.00 in0.0 mm 0.00 in0.0 mm
01:00 AM 45.8°F7.7°C 42.4°F5.8°C 88% 0.4 mph SE0.6 kmh SE 2.0 mph3.2 kmh 30.16 in1021.3 mb - 0.00 in0.0 mm 0.00 in0.0 mm
12:55 AM 45.7°F7.6°C 42.4°F5.8°C 88% 0.3 mph SE0.5 kmh SE 2.0 mph3.2 kmh 30.16 in1021.3 mb - 0.00 in0.0 mm 0.00 in0.0 mm
12:50 AM 45.7°F7.6°C 42.3°F5.7°C 88% 0.4 mph SE0.6 kmh SE -- 30.16 in1021.3 mb - 0.00 in0.0 mm 0.00 in0.0 mm
12:45 AM 45.6°F7.6°C 42.6°F5.9°C 89% 0.5 mph SE0.8 kmh SE 2.0 mph3.2 kmh 30.16 in1021.3 mb - 0.00 in0.0 mm 0.00 in0.0 mm
12:40 AM 45.5°F7.5°C 42.4°F5.8°C 89% 1.4 mph SE2.3 kmh SE 3.0 mph4.8 kmh 30.16 in1021.3 mb - 0.00 in0.0 mm 0.00 in0.0 mm
12:35 AM 45.3°F7.4°C 42.3°F5.7°C 89% 1.1 mph SE1.8 kmh SE 3.0 mph4.8 kmh 30.16 in1021.3 mb - 0.00 in0.0 mm 0.00 in0.0 mm
12:30 AM 45.5°F7.5°C 42.4°F5.8°C 89% 0.8 mph SE1.3 kmh SE 1.0 mph1.6 kmh 30.16 in1021.3 mb - 0.00 in0.0 mm 0.00 in0.0 mm
12:25 AM 45.4°F7.4°C 42.3°F5.7°C 89% 0.6 mph SE1.0 kmh SE 1.0 mph1.6 kmh 30.16 in1021.3 mb - 0.00 in0.0 mm 0.00 in0.0 mm
12:20 AM 45.3°F7.4°C 42.2°F5.7°C 89% 0.2 mph SSE0.3 kmh SSE 1.0 mph1.6 kmh 30.16 in1021.3 mb - 0.00 in0.0 mm 0.00 in0.0 mm
12:15 AM 45.3°F7.4°C 42.0°F5.6°C 88% Calm Calm -- 30.16 in1021.3 mb - 0.00 in0.0 mm 0.00 in0.0 mm
12:10 AM 45.7°F7.6°C 42.3°F5.7°C 88% Calm Calm -- 30.15 in1021.0 mb - 0.00 in0.0 mm 0.00 in0.0 mm
12:05 AM 45.8°F7.7°C 42.7°F5.9°C 89% 0.1 mph SE0.2 kmh SE 1.0 mph1.6 kmh 30.15 in1021.0 mb - 0.00 in0.0 mm 0.00 in0.0 mm
12:00 AM 45.6°F7.6°C 42.5°F5.8°C 89% 0.2 mph SE0.3 kmh SE 1.0 mph1.6 kmh 30.15 in1021.0 mb - 0.00 in0.0 mm 0.00 in0.0 mm